sensor_id;sensor_type;location;lat;lon;timestamp;P1;durP1;ratioP1;P2;durP2;ratioP2
12550;SDS011;6341;51.434;6.792;2022-07-29T00:00:54;4.90;;;1.70;;
12550;SDS011;6341;51.434;6.792;2022-07-29T00:06:18;6.50;;;1.53;;
12550;SDS011;6341;51.434;6.792;2022-07-29T00:11:43;7.50;;;1.50;;
12550;SDS011;6341;51.434;6.792;2022-07-29T00:17:07;8.87;;;2.73;;
12550;SDS011;6341;51.434;6.792;2022-07-29T00:22:31;4.77;;;1.73;;
12550;SDS011;6341;51.434;6.792;2022-07-29T00:27:56;5.50;;;1.70;;
12550;SDS011;6341;51.434;6.792;2022-07-29T00:33:19;11.17;;;1.80;;
12550;SDS011;6341;51.434;6.792;2022-07-29T00:38:43;4.30;;;1.43;;
12550;SDS011;6341;51.434;6.792;2022-07-29T00:44:10;5.00;;;1.90;;
12550;SDS011;6341;51.434;6.792;2022-07-29T00:49:34;3.30;;;1.20;;
12550;SDS011;6341;51.434;6.792;2022-07-29T00:54:58;4.33;;;1.97;;
12550;SDS011;6341;51.434;6.792;2022-07-29T01:00:30;3.33;;;1.40;;
12550;SDS011;6341;51.434;6.792;2022-07-29T01:05:54;6.40;;;1.70;;
12550;SDS011;6341;51.434;6.792;2022-07-29T01:11:20;2.40;;;1.60;;
12550;SDS011;6341;51.434;6.792;2022-07-29T01:16:48;3.57;;;1.60;;
12550;SDS011;6341;51.434;6.792;2022-07-29T01:22:25;4.47;;;1.43;;
12550;SDS011;6341;51.434;6.792;2022-07-29T01:27:57;3.33;;;1.50;;
12550;SDS011;6341;51.434;6.792;2022-07-29T01:33:36;6.60;;;1.77;;
12550;SDS011;6341;51.434;6.792;2022-07-29T01:39:16;8.23;;;1.97;;
12550;SDS011;6341;51.434;6.792;2022-07-29T01:44:45;2.53;;;1.40;;
12550;SDS011;6341;51.434;6.792;2022-07-29T01:50:16;2.43;;;1.40;;
12550;SDS011;6341;51.434;6.792;2022-07-29T01:55:44;5.07;;;1.63;;
12550;SDS011;6341;51.434;6.792;2022-07-29T02:01:08;6.03;;;2.07;;
12550;SDS011;6341;51.434;6.792;2022-07-29T02:06:36;9.80;;;1.80;;
12550;SDS011;6341;51.434;6.792;2022-07-29T02:12:02;5.27;;;1.40;;
12550;SDS011;6341;51.434;6.792;2022-07-29T02:17:27;4.90;;;1.70;;
12550;SDS011;6341;51.434;6.792;2022-07-29T02:23:02;6.53;;;1.90;;
12550;SDS011;6341;51.434;6.792;2022-07-29T02:28:27;4.63;;;1.57;;
12550;SDS011;6341;51.434;6.792;2022-07-29T02:33:52;7.60;;;1.67;;
12550;SDS011;6341;51.434;6.792;2022-07-29T02:39:18;5.63;;;1.87;;
12550;SDS011;6341;51.434;6.792;2022-07-29T02:44:44;4.97;;;1.40;;
12550;SDS011;6341;51.434;6.792;2022-07-29T02:50:09;4.00;;;1.63;;
12550;SDS011;6341;51.434;6.792;2022-07-29T02:55:39;2.80;;;1.60;;
12550;SDS011;6341;51.434;6.792;2022-07-29T03:01:08;7.20;;;1.83;;
12550;SDS011;6341;51.434;6.792;2022-07-29T03:06:42;8.70;;;1.93;;
12550;SDS011;6341;51.434;6.792;2022-07-29T03:12:09;7.63;;;2.47;;
12550;SDS011;6341;51.434;6.792;2022-07-29T03:17:34;5.70;;;1.90;;
12550;SDS011;6341;51.434;6.792;2022-07-29T03:22:59;3.17;;;1.60;;
12550;SDS011;6341;51.434;6.792;2022-07-29T03:28:26;7.00;;;2.03;;
12550;SDS011;6341;51.434;6.792;2022-07-29T03:33:49;4.97;;;1.60;;
12550;SDS011;6341;51.434;6.792;2022-07-29T03:39:14;3.93;;;1.10;;
12550;SDS011;6341;51.434;6.792;2022-07-29T03:44:44;5.53;;;1.67;;
12550;SDS011;6341;51.434;6.792;2022-07-29T03:50:10;5.23;;;2.33;;
12550;SDS011;6341;51.434;6.792;2022-07-29T03:55:37;3.90;;;1.63;;
12550;SDS011;6341;51.434;6.792;2022-07-29T04:01:06;4.53;;;1.60;;
12550;SDS011;6341;51.434;6.792;2022-07-29T04:06:37;3.67;;;1.60;;
12550;SDS011;6341;51.434;6.792;2022-07-29T04:12:04;6.60;;;1.80;;
12550;SDS011;6341;51.434;6.792;2022-07-29T04:17:30;5.37;;;1.70;;
12550;SDS011;6341;51.434;6.792;2022-07-29T04:22:54;5.53;;;2.17;;
12550;SDS011;6341;51.434;6.792;2022-07-29T04:28:17;4.73;;;2.13;;
12550;SDS011;6341;51.434;6.792;2022-07-29T04:33:43;4.83;;;2.40;;
12550;SDS011;6341;51.434;6.792;2022-07-29T04:39:06;5.07;;;2.83;;
12550;SDS011;6341;51.434;6.792;2022-07-29T04:44:29;4.57;;;2.50;;
12550;SDS011;6341;51.434;6.792;2022-07-29T04:50:01;4.23;;;2.30;;
12550;SDS011;6341;51.434;6.792;2022-07-29T04:55:25;5.43;;;2.00;;
12550;SDS011;6341;51.434;6.792;2022-07-29T05:00:48;8.10;;;2.43;;
12550;SDS011;6341;51.434;6.792;2022-07-29T05:06:16;6.00;;;2.03;;
12550;SDS011;6341;51.434;6.792;2022-07-29T05:11:39;4.03;;;2.00;;
12550;SDS011;6341;51.434;6.792;2022-07-29T05:17:03;3.13;;;1.73;;
12550;SDS011;6341;51.434;6.792;2022-07-29T05:22:28;6.37;;;2.00;;
12550;SDS011;6341;51.434;6.792;2022-07-29T05:27:52;8.40;;;2.23;;
12550;SDS011;6341;51.434;6.792;2022-07-29T05:33:16;6.47;;;2.50;;
12550;SDS011;6341;51.434;6.792;2022-07-29T05:38:58;3.57;;;2.00;;
12550;SDS011;6341;51.434;6.792;2022-07-29T05:44:22;4.23;;;2.10;;
12550;SDS011;6341;51.434;6.792;2022-07-29T05:49:46;3.53;;;1.80;;
12550;SDS011;6341;51.434;6.792;2022-07-29T05:55:11;8.77;;;2.27;;
12550;SDS011;6341;51.434;6.792;2022-07-29T06:00:37;3.77;;;2.07;;
12550;SDS011;6341;51.434;6.792;2022-07-29T06:06:01;6.30;;;2.27;;
12550;SDS011;6341;51.434;6.792;2022-07-29T06:11:26;5.87;;;2.60;;
12550;SDS011;6341;51.434;6.792;2022-07-29T06:16:50;3.17;;;1.97;;
12550;SDS011;6341;51.434;6.792;2022-07-29T06:22:14;6.50;;;2.30;;
12550;SDS011;6341;51.434;6.792;2022-07-29T06:27:39;4.93;;;2.47;;
12550;SDS011;6341;51.434;6.792;2022-07-29T06:33:03;5.80;;;2.93;;
12550;SDS011;6341;51.434;6.792;2022-07-29T06:38:26;3.80;;;2.17;;
12550;SDS011;6341;51.434;6.792;2022-07-29T06:43:56;7.57;;;2.40;;
12550;SDS011;6341;51.434;6.792;2022-07-29T06:49:24;6.73;;;2.73;;
12550;SDS011;6341;51.434;6.792;2022-07-29T06:54:49;7.97;;;3.20;;
12550;SDS011;6341;51.434;6.792;2022-07-29T07:00:14;4.90;;;3.07;;
12550;SDS011;6341;51.434;6.792;2022-07-29T07:05:39;5.43;;;2.83;;
12550;SDS011;6341;51.434;6.792;2022-07-29T07:11:04;7.03;;;3.07;;
12550;SDS011;6341;51.434;6.792;2022-07-29T07:16:30;5.73;;;2.73;;
12550;SDS011;6341;51.434;6.792;2022-07-29T07:21:54;9.40;;;3.27;;
12550;SDS011;6341;51.434;6.792;2022-07-29T07:27:22;7.57;;;3.13;;
12550;SDS011;6341;51.434;6.792;2022-07-29T07:32:46;5.90;;;2.83;;
12550;SDS011;6341;51.434;6.792;2022-07-29T07:38:10;4.30;;;2.50;;
12550;SDS011;6341;51.434;6.792;2022-07-29T07:43:35;4.97;;;2.67;;
12550;SDS011;6341;51.434;6.792;2022-07-29T07:49:00;6.87;;;2.70;;
12550;SDS011;6341;51.434;6.792;2022-07-29T07:54:24;9.00;;;3.60;;
12550;SDS011;6341;51.434;6.792;2022-07-29T07:59:47;6.07;;;2.70;;
12550;SDS011;6341;51.434;6.792;2022-07-29T08:05:13;9.33;;;3.07;;
12550;SDS011;6341;51.434;6.792;2022-07-29T08:10:38;3.50;;;2.60;;
12550;SDS011;6341;51.434;6.792;2022-07-29T08:16:25;7.13;;;2.80;;
12550;SDS011;6341;51.434;6.792;2022-07-29T08:22:26;6.33;;;3.07;;
12550;SDS011;6341;51.434;6.792;2022-07-29T08:27:54;6.73;;;3.10;;
12550;SDS011;6341;51.434;6.792;2022-07-29T08:33:35;8.70;;;3.50;;
12550;SDS011;6341;51.434;6.792;2022-07-29T08:39:16;11.50;;;3.90;;
12550;SDS011;6341;51.434;6.792;2022-07-29T08:44:53;13.53;;;4.70;;
12550;SDS011;6341;51.434;6.792;2022-07-29T08:50:22;8.80;;;4.67;;
12550;SDS011;6341;51.434;6.792;2022-07-29T08:56:04;9.40;;;4.63;;
12550;SDS011;6341;51.434;6.792;2022-07-29T09:01:41;8.83;;;4.13;;
12550;SDS011;6341;51.434;6.792;2022-07-29T09:07:07;7.17;;;3.57;;
12550;SDS011;6341;51.434;6.792;2022-07-29T09:12:32;10.97;;;3.53;;
12550;SDS011;6341;51.434;6.792;2022-07-29T09:18:00;10.90;;;4.20;;
12550;SDS011;6341;51.434;6.792;2022-07-29T09:23:23;7.43;;;3.30;;
12550;SDS011;6341;51.434;6.792;2022-07-29T09:28:47;11.77;;;4.20;;
12550;SDS011;6341;51.434;6.792;2022-07-29T09:34:14;17.90;;;4.47;;
12550;SDS011;6341;51.434;6.792;2022-07-29T09:39:39;13.23;;;4.70;;
12550;SDS011;6341;51.434;6.792;2022-07-29T09:45:08;8.80;;;4.90;;
12550;SDS011;6341;51.434;6.792;2022-07-29T09:50:38;8.53;;;4.13;;
12550;SDS011;6341;51.434;6.792;2022-07-29T09:56:03;9.93;;;4.47;;
12550;SDS011;6341;51.434;6.792;2022-07-29T10:01:27;7.43;;;4.57;;
12550;SDS011;6341;51.434;6.792;2022-07-29T10:06:59;8.50;;;3.93;;
12550;SDS011;6341;51.434;6.792;2022-07-29T10:12:25;8.17;;;3.50;;
12550;SDS011;6341;51.434;6.792;2022-07-29T10:17:49;5.20;;;3.37;;
12550;SDS011;6341;51.434;6.792;2022-07-29T10:23:14;10.50;;;4.43;;
12550;SDS011;6341;51.434;6.792;2022-07-29T10:28:38;9.37;;;4.30;;
12550;SDS011;6341;51.434;6.792;2022-07-29T10:34:04;8.80;;;3.70;;
12550;SDS011;6341;51.434;6.792;2022-07-29T10:39:42;11.87;;;4.13;;
12550;SDS011;6341;51.434;6.792;2022-07-29T10:45:17;12.53;;;3.43;;
12550;SDS011;6341;51.434;6.792;2022-07-29T10:50:54;4.43;;;2.97;;
12550;SDS011;6341;51.434;6.792;2022-07-29T10:56:26;8.40;;;3.53;;
12550;SDS011;6341;51.434;6.792;2022-07-29T11:01:52;11.85;;;3.80;;
12550;SDS011;6341;51.434;6.792;2022-07-29T11:07:37;7.07;;;3.00;;
12550;SDS011;6341;51.434;6.792;2022-07-29T11:13:08;5.07;;;2.90;;
12550;SDS011;6341;51.434;6.792;2022-07-29T11:18:32;7.90;;;2.47;;
12550;SDS011;6341;51.434;6.792;2022-07-29T11:24:10;4.90;;;2.22;;
12550;SDS011;6341;51.434;6.792;2022-07-29T11:29:47;6.18;;;2.53;;
12550;SDS011;6341;51.434;6.792;2022-07-29T11:35:15;9.75;;;2.60;;
12550;SDS011;6341;51.434;6.792;2022-07-29T11:46:48;8.77;;;3.72;;
12550;SDS011;6341;51.434;6.792;2022-07-29T11:52:14;7.75;;;2.83;;
12550;SDS011;6341;51.434;6.792;2022-07-29T11:57:45;5.55;;;3.20;;
12550;SDS011;6341;51.434;6.792;2022-07-29T12:03:26;7.55;;;3.42;;
12550;SDS011;6341;51.434;6.792;2022-07-29T12:08:56;6.10;;;2.13;;
12550;SDS011;6341;51.434;6.792;2022-07-29T12:14:26;6.18;;;3.28;;
12550;SDS011;6341;51.434;6.792;2022-07-29T12:19:51;7.10;;;2.58;;
12550;SDS011;6341;51.434;6.792;2022-07-29T12:25:16;7.97;;;3.05;;
12550;SDS011;6341;51.434;6.792;2022-07-29T12:30:55;6.43;;;2.55;;
12550;SDS011;6341;51.434;6.792;2022-07-29T12:36:21;4.90;;;2.57;;
12550;SDS011;6341;51.434;6.792;2022-07-29T12:41:45;4.57;;;2.33;;
12550;SDS011;6341;51.434;6.792;2022-07-29T12:47:09;6.00;;;2.87;;
12550;SDS011;6341;51.434;6.792;2022-07-29T12:52:34;7.50;;;2.90;;
12550;SDS011;6341;51.434;6.792;2022-07-29T12:57:58;5.57;;;2.40;;
12550;SDS011;6341;51.434;6.792;2022-07-29T13:03:21;6.40;;;3.20;;
12550;SDS011;6341;51.434;6.792;2022-07-29T13:08:58;7.10;;;2.50;;
12550;SDS011;6341;51.434;6.792;2022-07-29T13:14:29;5.75;;;2.95;;
12550;SDS011;6341;51.434;6.792;2022-07-29T13:20:04;5.97;;;2.60;;
12550;SDS011;6341;51.434;6.792;2022-07-29T13:25:35;5.55;;;2.53;;
12550;SDS011;6341;51.434;6.792;2022-07-29T13:31:02;4.85;;;2.65;;
12550;SDS011;6341;51.434;6.792;2022-07-29T13:36:26;8.10;;;3.10;;
12550;SDS011;6341;51.434;6.792;2022-07-29T13:41:51;6.35;;;3.20;;
12550;SDS011;6341;51.434;6.792;2022-07-29T13:47:17;6.95;;;2.28;;
12550;SDS011;6341;51.434;6.792;2022-07-29T13:52:40;4.80;;;2.58;;
12550;SDS011;6341;51.434;6.792;2022-07-29T13:58:05;5.45;;;3.00;;
12550;SDS011;6341;51.434;6.792;2022-07-29T14:03:29;7.63;;;2.50;;
12550;SDS011;6341;51.434;6.792;2022-07-29T14:08:53;4.03;;;2.30;;
12550;SDS011;6341;51.434;6.792;2022-07-29T14:14:18;5.18;;;2.67;;
12550;SDS011;6341;51.434;6.792;2022-07-29T14:19:41;6.70;;;2.45;;
12550;SDS011;6341;51.434;6.792;2022-07-29T14:25:05;7.95;;;2.53;;
12550;SDS011;6341;51.434;6.792;2022-07-29T14:30:36;5.55;;;2.40;;
12550;SDS011;6341;51.434;6.792;2022-07-29T14:36:00;9.75;;;2.28;;
12550;SDS011;6341;51.434;6.792;2022-07-29T14:41:23;6.85;;;2.28;;
12550;SDS011;6341;51.434;6.792;2022-07-29T14:46:51;5.07;;;2.03;;
12550;SDS011;6341;51.434;6.792;2022-07-29T14:52:14;3.40;;;1.85;;
12550;SDS011;6341;51.434;6.792;2022-07-29T14:57:38;4.63;;;2.20;;
12550;SDS011;6341;51.434;6.792;2022-07-29T15:03:03;4.82;;;2.88;;
12550;SDS011;6341;51.434;6.792;2022-07-29T15:08:31;4.78;;;1.90;;
12550;SDS011;6341;51.434;6.792;2022-07-29T15:13:55;5.88;;;2.10;;
12550;SDS011;6341;51.434;6.792;2022-07-29T15:19:19;5.65;;;2.42;;
12550;SDS011;6341;51.434;6.792;2022-07-29T15:24:43;3.88;;;1.90;;
12550;SDS011;6341;51.434;6.792;2022-07-29T15:30:07;6.03;;;2.03;;
12550;SDS011;6341;51.434;6.792;2022-07-29T15:35:53;4.55;;;2.67;;
12550;SDS011;6341;51.434;6.792;2022-07-29T15:41:19;4.47;;;2.28;;
12550;SDS011;6341;51.434;6.792;2022-07-29T15:46:43;7.43;;;3.47;;
12550;SDS011;6341;51.434;6.792;2022-07-29T15:52:25;9.25;;;3.33;;
12550;SDS011;6341;51.434;6.792;2022-07-29T15:57:48;6.18;;;3.00;;
12550;SDS011;6341;51.434;6.792;2022-07-29T16:03:12;4.80;;;2.40;;
12550;SDS011;6341;51.434;6.792;2022-07-29T16:08:38;7.75;;;3.00;;
12550;SDS011;6341;51.434;6.792;2022-07-29T16:14:01;6.22;;;2.65;;
12550;SDS011;6341;51.434;6.792;2022-07-29T16:19:25;10.00;;;2.97;;
12550;SDS011;6341;51.434;6.792;2022-07-29T16:24:50;3.50;;;2.22;;
12550;SDS011;6341;51.434;6.792;2022-07-29T16:30:14;9.07;;;3.17;;
12550;SDS011;6341;51.434;6.792;2022-07-29T16:35:37;6.60;;;2.63;;
12550;SDS011;6341;51.434;6.792;2022-07-29T16:41:02;5.13;;;2.60;;
12550;SDS011;6341;51.434;6.792;2022-07-29T16:46:26;6.93;;;2.73;;
12550;SDS011;6341;51.434;6.792;2022-07-29T16:51:50;4.22;;;2.20;;
12550;SDS011;6341;51.434;6.792;2022-07-29T16:57:16;5.65;;;2.53;;
12550;SDS011;6341;51.434;6.792;2022-07-29T17:02:39;8.05;;;2.53;;
12550;SDS011;6341;51.434;6.792;2022-07-29T17:08:03;5.00;;;2.60;;
12550;SDS011;6341;51.434;6.792;2022-07-29T17:13:28;4.87;;;2.43;;
12550;SDS011;6341;51.434;6.792;2022-07-29T17:18:51;4.80;;;2.47;;
12550;SDS011;6341;51.434;6.792;2022-07-29T17:24:15;4.27;;;2.17;;
12550;SDS011;6341;51.434;6.792;2022-07-29T17:29:40;5.47;;;2.40;;
12550;SDS011;6341;51.434;6.792;2022-07-29T17:35:04;6.97;;;2.23;;
12550;SDS011;6341;51.434;6.792;2022-07-29T17:40:50;7.27;;;2.37;;
12550;SDS011;6341;51.434;6.792;2022-07-29T17:46:15;4.80;;;2.20;;
12550;SDS011;6341;51.434;6.792;2022-07-29T17:51:39;6.77;;;2.40;;
12550;SDS011;6341;51.434;6.792;2022-07-29T17:57:03;6.17;;;2.47;;
12550;SDS011;6341;51.434;6.792;2022-07-29T18:02:28;5.63;;;2.37;;
12550;SDS011;6341;51.434;6.792;2022-07-29T18:07:51;7.13;;;3.00;;
12550;SDS011;6341;51.434;6.792;2022-07-29T18:13:17;5.67;;;2.47;;
12550;SDS011;6341;51.434;6.792;2022-07-29T18:18:42;5.23;;;2.00;;
12550;SDS011;6341;51.434;6.792;2022-07-29T18:24:06;4.00;;;1.80;;
12550;SDS011;6341;51.434;6.792;2022-07-29T18:29:31;3.63;;;2.27;;
12550;SDS011;6341;51.434;6.792;2022-07-29T18:34:56;5.80;;;2.00;;
12550;SDS011;6341;51.434;6.792;2022-07-29T18:40:23;3.03;;;1.77;;
12550;SDS011;6341;51.434;6.792;2022-07-29T18:45:50;5.40;;;2.10;;
12550;SDS011;6341;51.434;6.792;2022-07-29T18:51:15;4.50;;;2.00;;
12550;SDS011;6341;51.434;6.792;2022-07-29T18:56:38;8.27;;;2.40;;
12550;SDS011;6341;51.434;6.792;2022-07-29T19:02:02;3.20;;;2.00;;
12550;SDS011;6341;51.434;6.792;2022-07-29T19:07:27;3.07;;;1.83;;
12550;SDS011;6341;51.434;6.792;2022-07-29T19:12:50;4.83;;;2.20;;
12550;SDS011;6341;51.434;6.792;2022-07-29T19:18:14;5.67;;;1.83;;
12550;SDS011;6341;51.434;6.792;2022-07-29T19:23:39;4.43;;;2.00;;
12550;SDS011;6341;51.434;6.792;2022-07-29T19:29:22;3.90;;;1.90;;
12550;SDS011;6341;51.434;6.792;2022-07-29T19:34:47;4.30;;;2.23;;
12550;SDS011;6341;51.434;6.792;2022-07-29T19:40:26;5.00;;;2.10;;
12550;SDS011;6341;51.434;6.792;2022-07-29T19:45:50;4.80;;;2.47;;
12550;SDS011;6341;51.434;6.792;2022-07-29T19:51:14;10.32;;;2.53;;
12550;SDS011;6341;51.434;6.792;2022-07-29T19:56:39;5.27;;;2.20;;
12550;SDS011;6341;51.434;6.792;2022-07-29T20:02:06;5.77;;;2.13;;
12550;SDS011;6341;51.434;6.792;2022-07-29T20:07:31;3.40;;;2.10;;
12550;SDS011;6341;51.434;6.792;2022-07-29T20:12:56;5.97;;;2.60;;
12550;SDS011;6341;51.434;6.792;2022-07-29T20:18:20;4.97;;;2.17;;
12550;SDS011;6341;51.434;6.792;2022-07-29T20:23:43;5.37;;;3.00;;
12550;SDS011;6341;51.434;6.792;2022-07-29T20:29:08;7.43;;;3.27;;
12550;SDS011;6341;51.434;6.792;2022-07-29T20:34:32;3.60;;;2.70;;
12550;SDS011;6341;51.434;6.792;2022-07-29T20:39:56;5.83;;;2.70;;
12550;SDS011;6341;51.434;6.792;2022-07-29T20:45:22;5.10;;;2.77;;
12550;SDS011;6341;51.434;6.792;2022-07-29T20:50:45;6.37;;;2.63;;
12550;SDS011;6341;51.434;6.792;2022-07-29T20:56:09;4.23;;;2.67;;
12550;SDS011;6341;51.434;6.792;2022-07-29T21:01:34;5.20;;;2.57;;
12550;SDS011;6341;51.434;6.792;2022-07-29T21:06:58;6.07;;;3.07;;
12550;SDS011;6341;51.434;6.792;2022-07-29T21:12:23;5.47;;;3.70;;
12550;SDS011;6341;51.434;6.792;2022-07-29T21:17:48;7.50;;;3.33;;
12550;SDS011;6341;51.434;6.792;2022-07-29T21:23:20;6.20;;;3.00;;
12550;SDS011;6341;51.434;6.792;2022-07-29T21:28:43;7.20;;;3.33;;
12550;SDS011;6341;51.434;6.792;2022-07-29T21:34:12;5.30;;;3.40;;
12550;SDS011;6341;51.434;6.792;2022-07-29T21:39:36;6.43;;;3.47;;
12550;SDS011;6341;51.434;6.792;2022-07-29T21:44:59;5.27;;;3.70;;
12550;SDS011;6341;51.434;6.792;2022-07-29T21:50:24;5.93;;;3.60;;
12550;SDS011;6341;51.434;6.792;2022-07-29T21:55:48;8.03;;;3.70;;
12550;SDS011;6341;51.434;6.792;2022-07-29T22:01:14;6.20;;;3.50;;
12550;SDS011;6341;51.434;6.792;2022-07-29T22:06:39;5.10;;;3.50;;
12550;SDS011;6341;51.434;6.792;2022-07-29T22:12:03;9.97;;;3.73;;
12550;SDS011;6341;51.434;6.792;2022-07-29T22:17:27;6.87;;;4.20;;
12550;SDS011;6341;51.434;6.792;2022-07-29T22:22:52;4.53;;;3.53;;
12550;SDS011;6341;51.434;6.792;2022-07-29T22:28:15;6.80;;;3.60;;
12550;SDS011;6341;51.434;6.792;2022-07-29T22:33:39;6.70;;;3.83;;
12550;SDS011;6341;51.434;6.792;2022-07-29T22:39:04;9.03;;;3.60;;
12550;SDS011;6341;51.434;6.792;2022-07-29T22:44:28;5.73;;;3.70;;
12550;SDS011;6341;51.434;6.792;2022-07-29T22:49:51;4.70;;;2.87;;
12550;SDS011;6341;51.434;6.792;2022-07-29T22:55:17;6.53;;;3.63;;
12550;SDS011;6341;51.434;6.792;2022-07-29T23:00:40;6.40;;;3.17;;
12550;SDS011;6341;51.434;6.792;2022-07-29T23:06:05;5.20;;;3.30;;
12550;SDS011;6341;51.434;6.792;2022-07-29T23:11:30;8.60;;;3.60;;
12550;SDS011;6341;51.434;6.792;2022-07-29T23:16:53;7.80;;;3.53;;
12550;SDS011;6341;51.434;6.792;2022-07-29T23:22:17;6.37;;;3.30;;
12550;SDS011;6341;51.434;6.792;2022-07-29T23:27:41;6.77;;;3.10;;
12550;SDS011;6341;51.434;6.792;2022-07-29T23:33:05;9.07;;;3.87;;
12550;SDS011;6341;51.434;6.792;2022-07-29T23:38:29;5.33;;;3.20;;
12550;SDS011;6341;51.434;6.792;2022-07-29T23:43:54;4.53;;;3.20;;
12550;SDS011;6341;51.434;6.792;2022-07-29T23:49:17;6.60;;;3.80;;
12550;SDS011;6341;51.434;6.792;2022-07-29T23:54:41;6.93;;;3.97;;
